Terminal Aerodrome Forecast
Issued by NWS

Home | Current Version | Previous Version | Text Only | Print | Product List | Glossary On
Versions: 1 2 3 4 5 6 7 8 9 10 11 12 13 14 15 16 17 18 19 20 21 22 23 24 25 26 27 28 29 30 31
893
FTUS42 KCAE 180522 AAA
TAFOGB
TAF AMD
KOGB 180522Z 1805/1906 VRB03KT P6SM SCT250
     FM180900 00000KT 6SM HZ SCT250
     FM181300 25005KT P6SM SKC
     FM181700 23008KT P6SM VCSH SCT050=

USA.gov is the U.S. government's official web portal to all federal, state and local government web resources and services.